Time;durP1;ratioP1;P1;durP2;ratioP2;P2;SDS_P1;SDS_P2;PMS_P1;PMS_P2;Temp;Humidity;BMP_temperature;BMP_pressure;BME280_temperature;BME280_humidity;BME280_pressure;Samples;Min_cycle;Max_cycle;Signal;HPM_P1;HPM_P2
2021/05/04 00:01:40;;;;;;;9.43;4.85;;;4.10;99.90;;;;;;5053016;28;20062;-73
2021/05/04 00:04:06;;;;;;;10.85;5.60;;;4.20;99.90;;;;;;5053659;28;20039;-72
2021/05/04 00:06:31;;;;;;;9.85;5.25;;;4.30;99.90;;;;;;5053056;28;20021;-72
2021/05/04 00:08:57;;;;;;;8.95;5.13;;;4.30;99.90;;;;;;5053039;28;20029;-71
2021/05/04 00:11:23;;;;;;;7.25;4.38;;;4.30;99.90;;;;;;5051485;28;20031;-72
2021/05/04 02:35:56;;;;;;;11.02;6.25;;;4.70;99.90;;;;;;5050814;28;20135;-72
2021/05/04 02:38:21;;;;;;;12.63;6.40;;;4.70;99.90;;;;;;5049526;28;20059;-72
2021/05/04 02:40:47;;;;;;;15.15;8.68;;;4.70;99.90;;;;;;5050440;28;20025;-72
2021/05/04 02:43:12;;;;;;;10.27;6.18;;;4.70;99.90;;;;;;5050265;28;20163;-72
2021/05/04 02:45:38;;;;;;;12.50;7.07;;;4.70;99.90;;;;;;5050638;28;20025;-72
2021/05/04 02:48:04;;;;;;;10.48;6.47;;;4.70;99.90;;;;;;5050465;28;20392;-72
2021/05/04 02:50:29;;;;;;;10.60;6.50;;;4.70;99.90;;;;;;5049104;28;20033;-71
2021/05/04 02:52:55;;;;;;;11.63;6.05;;;4.60;99.90;;;;;;5048793;28;20124;-72
2021/05/04 02:55:22;;;;;;;10.35;5.78;;;4.60;99.90;;;;;;5050597;28;20033;-72
2021/05/04 02:57:47;;;;;;;10.85;6.20;;;4.50;99.90;;;;;;5050582;28;20075;-71
2021/05/04 03:00:13;;;;;;;12.85;6.55;;;4.50;99.90;;;;;;5050692;28;20033;-73
2021/05/04 03:02:39;;;;;;;10.52;6.35;;;4.50;99.90;;;;;;5050095;28;20108;-72
2021/05/04 03:05:05;;;;;;;12.10;6.63;;;4.60;99.90;;;;;;5050413;28;20048;-73
2021/05/04 03:07:31;;;;;;;15.27;7.07;;;4.60;99.90;;;;;;5050246;28;20059;-72
2021/05/04 03:09:56;;;;;;;11.27;6.90;;;4.70;99.90;;;;;;5048957;28;20053;-71
2021/05/04 03:12:22;;;;;;;11.70;6.45;;;4.70;99.90;;;;;;5049931;28;20531;-72
2021/05/04 03:14:47;;;;;;;11.30;6.32;;;4.90;99.90;;;;;;5050293;28;20025;-72
2021/05/04 03:17:13;;;;;;;12.40;6.25;;;4.80;99.90;;;;;;5053876;28;20392;-72
2021/05/04 03:19:38;;;;;;;10.82;6.68;;;5.00;99.90;;;;;;5054016;28;20431;-72
2021/05/04 03:22:04;;;;;;;11.82;6.80;;;4.90;99.90;;;;;;5052344;28;20020;-72
2021/05/04 03:24:29;;;;;;;11.82;6.88;;;4.90;99.90;;;;;;5054090;28;20056;-72
2021/05/04 03:26:55;;;;;;;9.82;5.60;;;4.90;99.90;;;;;;5053883;28;20029;-72
2021/05/04 03:29:20;;;;;;;11.32;6.78;;;5.00;99.90;;;;;;5053652;28;20119;-72
2021/05/04 03:31:46;;;;;;;11.75;6.50;;;5.00;99.90;;;;;;5052286;28;20029;-72
2021/05/04 03:34:11;;;;;;;11.43;6.15;;;5.00;99.90;;;;;;5053748;28;20056;-71
2021/05/04 03:36:37;;;;;;;12.57;6.43;;;5.00;99.90;;;;;;5053515;28;20074;-73
2021/05/04 03:39:03;;;;;;;12.10;5.93;;;5.00;99.90;;;;;;5053494;28;20025;-72
2021/05/04 03:41:29;;;;;;;10.40;6.15;;;5.10;99.90;;;;;;5053419;28;20472;-72
2021/05/04 03:43:54;;;;;;;12.60;6.00;;;5.10;99.90;;;;;;5053844;28;20029;-72
2021/05/04 03:46:20;;;;;;;11.98;6.07;;;5.00;99.90;;;;;;5052212;28;20025;-72
2021/05/04 03:48:45;;;;;;;10.75;6.25;;;5.00;99.90;;;;;;5053407;28;20483;-71
2021/05/04 03:51:11;;;;;;;11.48;6.13;;;4.90;99.90;;;;;;5052303;28;20091;-70
2021/05/04 03:53:38;;;;;;;11.07;5.95;;;5.00;99.90;;;;;;5051972;28;20151;-72
2021/05/04 03:56:04;;;;;;;10.70;6.47;;;5.00;99.90;;;;;;5053305;28;20032;-72
2021/05/04 03:58:31;;;;;;;11.95;7.00;;;5.10;99.90;;;;;;5053399;28;20500;-71
2021/05/04 04:00:56;;;;;;;13.38;6.50;;;5.10;99.90;;;;;;5053379;28;20432;-72
2021/05/04 04:03:22;;;;;;;10.05;5.97;;;5.10;99.90;;;;;;5053189;28;20052;-72
2021/05/04 04:05:47;;;;;;;10.93;5.78;;;5.10;99.90;;;;;;5051923;28;20208;-73
2021/05/04 04:08:13;;;;;;;13.32;6.57;;;5.10;99.90;;;;;;5053361;28;20035;-72
2021/05/04 04:10:39;;;;;;;11.43;6.30;;;5.10;99.90;;;;;;5053093;28;20025;-71
2021/05/04 04:13:06;;;;;;;9.93;6.00;;;5.10;99.90;;;;;;5051669;28;20075;-72
2021/05/04 04:15:32;;;;;;;10.25;6.40;;;5.30;99.90;;;;;;5053212;28;20021;-72
2021/05/04 04:17:58;;;;;;;11.13;6.40;;;5.30;99.90;;;;;;5051910;28;20530;-72
2021/05/04 04:20:23;;;;;;;9.70;5.93;;;5.30;99.90;;;;;;5053120;28;20021;-72
2021/05/04 04:22:49;;;;;;;10.30;5.47;;;5.40;99.90;;;;;;5051669;28;20464;-72
2021/05/04 04:25:14;;;;;;;12.48;6.10;;;5.50;99.90;;;;;;5051820;28;20025;-72
2021/05/04 04:27:40;;;;;;;12.80;6.75;;;5.50;99.90;;;;;;5053057;28;20376;-72
2021/05/04 04:30:06;;;;;;;9.23;5.85;;;5.60;99.90;;;;;;5052549;28;20048;-72
2021/05/04 04:32:32;;;;;;;10.82;5.72;;;5.80;99.90;;;;;;5052422;28;20431;-72
2021/05/04 04:34:57;;;;;;;9.85;5.90;;;5.90;99.90;;;;;;5052580;28;20070;-72
2021/05/04 04:37:23;;;;;;;11.27;5.50;;;6.10;99.90;;;;;;5051238;28;20021;-72
2021/05/04 04:39:49;;;;;;;11.50;5.18;;;6.50;98.70;;;;;;5052531;28;20518;-72
2021/05/04 04:42:14;;;;;;;10.45;5.88;;;6.80;99.50;;;;;;5052083;28;20052;-72
2021/05/04 04:44:40;;;;;;;9.20;5.68;;;7.00;99.40;;;;;;5052419;28;20036;-73
2021/05/04 04:47:06;;;;;;;10.80;6.07;;;7.00;99.30;;;;;;5052365;28;20028;-72
2021/05/04 04:49:33;;;;;;;10.05;6.07;;;7.20;99.10;;;;;;5052231;28;20029;-72
2021/05/04 04:51:58;;;;;;;10.25;5.65;;;7.30;98.90;;;;;;5051923;28;20476;-72
2021/05/04 04:54:24;;;;;;;9.90;6.20;;;7.40;98.70;;;;;;5051158;28;20036;-71
2021/05/04 04:56:50;;;;;;;10.57;6.13;;;7.50;98.70;;;;;;5050835;28;20116;-72
2021/05/04 04:59:16;;;;;;;11.15;6.35;;;7.60;98.50;;;;;;5052112;28;20494;-72
2021/05/04 05:01:41;;;;;;;10.65;6.10;;;7.60;98.40;;;;;;5051878;28;20024;-76
2021/05/04 05:04:07;;;;;;;10.65;5.65;;;7.70;98.10;;;;;;5050772;28;20020;-72
2021/05/04 05:06:33;;;;;;;8.43;5.18;;;7.80;98.00;;;;;;5051920;28;20025;-72
2021/05/04 05:09:00;;;;;;;8.55;4.95;;;7.90;98.30;;;;;;5050564;28;20407;-72
2021/05/04 05:11:26;;;;;;;7.93;4.75;;;8.00;97.30;;;;;;5050354;28;20025;-71
2021/05/04 05:13:52;;;;;;;10.10;5.20;;;8.10;97.90;;;;;;5050570;28;20044;-73
2021/05/04 05:16:19;;;;;;;8.10;4.97;;;8.20;97.20;;;;;;5051720;28;20380;-72
2021/05/04 05:18:45;;;;;;;9.32;5.22;;;8.40;97.10;;;;;;5050347;28;20441;-71
2021/05/04 05:21:14;;;;;;;7.82;4.70;;;8.40;96.90;;;;;;5050343;28;20021;-73
2021/05/04 05:23:40;;;;;;;9.32;5.05;;;8.50;96.20;;;;;;5051551;28;20327;-72
2021/05/04 05:26:06;;;;;;;8.73;4.10;;;8.70;96.70;;;;;;5051589;28;20100;-72
2021/05/04 05:28:32;;;;;;;7.03;4.13;;;8.80;96.40;;;;;;5051423;28;20035;-73
2021/05/04 05:30:57;;;;;;;7.97;3.53;;;8.90;95.00;;;;;;5041851;28;20025;-73
2021/05/04 05:33:23;;;;;;;9.50;4.15;;;9.10;94.10;;;;;;5031423;28;20522;-75
2021/05/04 05:35:49;;;;;;;8.48;3.78;;;9.20;95.10;;;;;;5031605;28;20025;-74
2021/05/04 05:38:15;;;;;;;12.45;4.72;;;9.50;92.70;;;;;;5030980;28;20485;-74
2021/05/04 05:40:41;;;;;;;7.97;3.92;;;9.70;92.80;;;;;;5031255;28;20021;-74
2021/05/04 05:43:06;;;;;;;10.35;4.00;;;9.90;92.20;;;;;;5030964;28;20027;-73
2021/05/04 05:45:32;;;;;;;10.27;4.35;;;9.90;92.20;;;;;;5032318;28;20028;-74
2021/05/04 05:47:58;;;;;;;7.43;4.00;;;9.90;92.90;;;;;;5031280;28;20040;-73
2021/05/04 05:50:23;;;;;;;6.95;3.40;;;10.00;91.50;;;;;;5040698;28;20064;-72
2021/05/04 05:52:50;;;;;;;8.15;4.05;;;10.10;90.90;;;;;;5044593;28;20030;-72
2021/05/04 05:55:15;;;;;;;7.10;3.63;;;10.30;91.10;;;;;;5041670;28;20526;-72
2021/05/04 05:57:41;;;;;;;6.15;3.67;;;10.30;90.90;;;;;;5038220;28;20025;-73
2021/05/04 06:00:08;;;;;;;8.57;3.67;;;10.40;90.40;;;;;;5049705;28;20050;-73
2021/05/04 06:02:34;;;;;;;6.45;3.80;;;10.50;89.20;;;;;;5050615;28;20483;-72
2021/05/04 06:05:00;;;;;;;8.32;4.43;;;10.60;89.80;;;;;;5043297;28;20050;-72
2021/05/04 06:07:25;;;;;;;9.02;4.50;;;10.70;90.00;;;;;;5027924;28;20396;-73
2021/05/04 06:09:51;;;;;;;7.25;4.45;;;10.80;89.20;;;;;;5029716;28;20029;-73
2021/05/04 06:12:17;;;;;;;11.75;4.53;;;11.00;88.90;;;;;;5030173;28;20029;-72
2021/05/04 06:14:42;;;;;;;9.73;5.07;;;11.10;88.60;;;;;;5029678;28;20034;-73
2021/05/04 06:17:08;;;;;;;9.70;5.40;;;11.20;87.70;;;;;;5030828;28;20032;-73
2021/05/04 06:19:33;;;;;;;8.43;4.50;;;11.30;87.00;;;;;;5030806;28;20113;-73
2021/05/04 06:21:59;;;;;;;8.95;3.97;;;11.30;86.60;;;;;;5030630;28;20022;-73
2021/05/04 06:24:24;;;;;;;8.18;4.32;;;11.20;86.90;;;;;;5038307;28;20013;-73
2021/05/04 06:26:50;;;;;;;7.63;3.97;;;11.20;86.00;;;;;;5051060;28;20499;-72
2021/05/04 06:29:16;;;;;;;7.30;3.60;;;11.10;87.30;;;;;;5047528;28;20033;-72
2021/05/04 06:31:41;;;;;;;7.20;3.88;;;11.20;88.40;;;;;;5030637;28;20025;-74
2021/05/04 06:34:09;;;;;;;8.07;4.03;;;11.10;86.60;;;;;;5029618;28;20033;-73
2021/05/04 06:36:35;;;;;;;6.30;3.67;;;11.20;86.90;;;;;;5039021;28;20025;-72
2021/05/04 06:39:01;;;;;;;9.00;4.18;;;11.30;87.50;;;;;;5037339;28;20028;-72
2021/05/04 06:41:28;;;;;;;7.25;4.07;;;11.50;85.50;;;;;;5030218;28;20029;-72
2021/05/04 06:43:54;;;;;;;7.00;3.72;;;11.60;84.60;;;;;;5029406;28;20281;-74
2021/05/04 06:46:19;;;;;;;8.35;3.40;;;11.60;84.70;;;;;;5029221;28;20048;-73
2021/05/04 06:48:45;;;;;;;6.88;4.03;;;11.60;84.90;;;;;;5030763;28;20054;-73
2021/05/04 06:51:10;;;;;;;8.05;3.85;;;11.60;84.60;;;;;;5033032;28;20495;-73
2021/05/04 06:53:36;;;;;;;7.43;4.35;;;11.70;84.90;;;;;;5034534;28;20442;-72
2021/05/04 06:56:02;;;;;;;6.28;3.70;;;11.70;83.30;;;;;;5034579;28;20452;-73
2021/05/04 06:58:27;;;;;;;5.75;2.97;;;11.80;84.80;;;;;;5034640;28;20096;-73
2021/05/04 07:00:53;;;;;;;7.88;3.60;;;11.90;83.90;;;;;;5034094;28;20484;-73
2021/05/04 07:03:19;;;;;;;7.65;3.28;;;11.90;83.40;;;;;;5034326;28;20113;-73
2021/05/04 07:05:44;;;;;;;7.20;3.75;;;12.00;82.70;;;;;;5034334;28;20101;-73
2021/05/04 07:08:10;;;;;;;8.27;3.22;;;12.00;84.20;;;;;;5034439;28;20134;-73
2021/05/04 07:10:35;;;;;;;8.27;3.53;;;12.10;82.40;;;;;;5039132;28;20025;-73
2021/05/04 07:13:02;;;;;;;8.73;3.50;;;12.10;82.10;;;;;;5052476;28;20025;-72
2021/05/04 07:15:28;;;;;;;5.32;3.00;;;12.30;82.10;;;;;;5050098;28;20021;-72
2021/05/04 07:17:53;;;;;;;11.75;3.17;;;12.40;80.10;;;;;;5037116;28;20391;-72
2021/05/04 07:20:21;;;;;;;6.75;3.20;;;12.50;80.10;;;;;;5032762;28;20022;-72
2021/05/04 07:22:52;;;;;;;9.02;2.90;;;12.70;79.30;;;;;;5032684;28;20057;-73
2021/05/04 07:25:17;;;;;;;6.07;2.70;;;12.70;79.00;;;;;;5034027;28;20017;-73
2021/05/04 07:27:43;;;;;;;5.57;2.72;;;12.80;80.20;;;;;;5033813;28;20039;-74
2021/05/04 07:30:09;;;;;;;5.53;2.75;;;12.80;78.90;;;;;;5033649;28;20043;-73
2021/05/04 07:32:34;;;;;;;5.65;2.83;;;12.80;78.20;;;;;;5032467;28;20036;-73
2021/05/04 07:35:01;;;;;;;5.30;2.70;;;12.80;78.10;;;;;;5033911;28;20440;-72
2021/05/04 07:37:26;;;;;;;6.80;2.85;;;12.80;77.70;;;;;;5036177;28;20029;-72
2021/05/04 07:39:52;;;;;;;6.18;2.70;;;12.70;78.60;;;;;;5033606;28;20385;-73
2021/05/04 07:42:18;;;;;;;5.97;2.90;;;12.70;78.40;;;;;;5031958;28;20025;-75
2021/05/04 07:44:43;;;;;;;7.90;3.00;;;12.70;78.60;;;;;;5032511;28;20036;-73
2021/05/04 07:47:09;;;;;;;6.43;2.85;;;12.70;79.90;;;;;;5033563;28;20030;-72
2021/05/04 07:49:42;;;;;;;6.25;2.67;;;12.70;79.20;;;;;;5032107;28;20022;-73
2021/05/04 07:52:07;;;;;;;6.10;2.83;;;12.70;78.90;;;;;;5031855;28;20040;-73
2021/05/04 07:54:33;;;;;;;5.15;2.83;;;12.60;79.90;;;;;;5033441;28;20593;-72
2021/05/04 07:56:59;;;;;;;6.30;2.70;;;12.70;80.20;;;;;;5031952;28;20029;-74
2021/05/04 07:59:24;;;;;;;6.97;2.72;;;12.70;79.90;;;;;;5034167;28;20024;-73
2021/05/04 08:01:50;;;;;;;6.20;3.03;;;12.70;80.40;;;;;;5039837;28;20076;-72
2021/05/04 08:04:15;;;;;;;7.63;2.53;;;12.80;80.20;;;;;;5047085;28;20617;-73
2021/05/04 08:06:42;;;;;;;11.80;2.70;;;12.80;80.30;;;;;;5053450;28;20052;-72
2021/05/04 08:09:08;;;;;;;5.70;2.60;;;12.70;80.90;;;;;;5040249;28;20535;-72
2021/05/04 08:11:34;;;;;;;8.30;2.63;;;12.70;81.20;;;;;;5036281;28;20511;-72
2021/05/04 08:14:00;;;;;;;5.47;2.60;;;12.70;82.20;;;;;;5036526;28;20487;-73
2021/05/04 08:16:28;;;;;;;5.32;2.50;;;12.80;81.00;;;;;;5044743;28;20061;-74
2021/05/04 08:18:54;;;;;;;5.82;2.28;;;12.80;81.00;;;;;;5046832;28;20048;-72
2021/05/04 08:21:21;;;;;;;4.72;3.10;;;12.90;82.40;;;;;;5045129;28;20895;-72
2021/05/04 08:23:46;;;;;;;4.97;2.40;;;12.90;81.20;;;;;;5046927;28;20468;-73
2021/05/04 08:26:13;;;;;;;4.35;2.40;;;12.90;81.60;;;;;;5032948;28;20029;-73
2021/05/04 08:28:39;;;;;;;4.82;2.53;;;12.90;81.80;;;;;;5048962;28;20028;-73
2021/05/04 08:31:04;;;;;;;6.32;2.63;;;13.00;83.30;;;;;;5053089;28;20033;-73
2021/05/04 08:33:30;;;;;;;5.32;2.30;;;13.10;84.00;;;;;;5036598;28;20045;-73
2021/05/04 08:35:55;;;;;;;6.93;2.30;;;13.20;80.80;;;;;;5046810;28;20021;-74
2021/05/04 08:38:21;;;;;;;10.68;2.38;;;13.20;82.20;;;;;;5043885;28;20025;-74
2021/05/04 08:40:47;;;;;;;5.85;2.47;;;13.20;81.10;;;;;;5032760;28;20365;-75
2021/05/04 08:43:13;;;;;;;4.47;1.67;;;13.10;81.20;;;;;;5037030;28;20017;-75
2021/05/04 08:45:42;;;;;;;3.85;1.85;;;13.10;81.50;;;;;;5042984;28;20542;-75
2021/05/04 08:48:07;;;;;;;5.88;2.17;;;12.90;81.00;;;;;;5031245;28;20030;-76
2021/05/04 08:50:35;;;;;;;4.07;1.58;;;13.00;82.50;;;;;;5037411;28;20048;-75
2021/05/04 08:53:01;;;;;;;3.95;2.05;;;13.20;79.50;;;;;;5035332;28;20118;-75
2021/05/04 08:55:27;;;;;;;3.40;1.60;;;13.30;81.00;;;;;;5032242;28;20052;-73
2021/05/04 08:57:52;;;;;;;4.57;1.73;;;13.50;79.10;;;;;;5032445;28;20057;-74
2021/05/04 09:00:18;;;;;;;5.30;1.98;;;13.60;77.30;;;;;;5031941;28;20541;-74
2021/05/04 09:03:05;;;;;;;8.43;1.98;;;13.70;80.30;;;;;;5030578;28;20045;-74
2021/05/04 09:05:50;;;;;;;3.75;1.70;;;13.90;76.00;;;;;;5032186;28;20599;-72
2021/05/04 09:08:43;;;;;;;3.45;1.67;;;13.80;74.80;;;;;;5032089;28;20028;-73
2021/05/04 09:11:30;;;;;;;10.05;2.40;;;13.90;74.40;;;;;;5032068;28;20033;-73
2021/05/04 09:16:57;;;;;;;6.55;1.48;;;14.30;72.50;;;;;;4989673;28;20041;-72
2021/05/04 09:21:54;;;;;;;4.70;1.80;;;14.30;71.50;;;;;;4970195;28;20072;-72
2021/05/04 09:24:39;;;;;;;7.53;2.30;;;14.30;72.30;;;;;;4970493;28;20107;-72
2021/05/04 09:27:07;;;;;;;4.68;2.00;;;14.40;72.00;;;;;;4954229;28;20085;-72
2021/05/04 09:29:40;;;;;;;4.70;2.22;;;14.60;71.90;;;;;;4970208;28;20034;-72
2021/05/04 09:32:12;;;;;;;5.80;1.65;;;14.60;71.80;;;;;;4970153;28;20129;-72
2021/05/04 09:34:59;;;;;;;3.85;1.70;;;14.50;71.40;;;;;;4985288;28;20097;-73
2021/05/04 09:37:43;;;;;;;6.65;1.63;;;14.50;70.90;;;;;;4989526;28;20026;-73
2021/05/04 09:40:29;;;;;;;4.70;1.88;;;14.40;72.40;;;;;;4989567;28;20496;-73
2021/05/04 09:43:12;;;;;;;3.33;1.70;;;14.20;71.30;;;;;;4986447;28;20129;-74
2021/05/04 09:45:49;;;;;;;4.60;1.95;;;14.20;72.40;;;;;;4988590;28;20037;-76
2021/05/04 09:48:18;;;;;;;4.10;1.80;;;14.20;72.10;;;;;;4989361;28;20038;-75
2021/05/04 09:51:06;;;;;;;5.88;1.90;;;14.30;71.80;;;;;;4989548;28;20026;-74
2021/05/04 09:53:50;;;;;;;7.53;1.98;;;14.30;72.40;;;;;;5013933;28;20033;-75
2021/05/04 09:56:32;;;;;;;6.85;1.90;;;14.30;73.00;;;;;;5051123;28;20063;-74
2021/05/04 09:58:58;;;;;;;3.85;2.00;;;14.50;73.10;;;;;;5049953;28;20037;-75
2021/05/04 10:01:23;;;;;;;5.03;1.90;;;14.70;72.40;;;;;;5049576;28;20021;-75
2021/05/04 10:03:50;;;;;;;3.58;1.70;;;14.70;72.40;;;;;;5051037;28;20111;-75
2021/05/04 10:06:18;;;;;;;4.45;2.03;;;14.70;72.90;;;;;;5049700;28;20025;-74
2021/05/04 10:08:45;;;;;;;4.10;1.73;;;14.60;72.80;;;;;;5051041;28;20029;-75
2021/05/04 10:11:18;;;;;;;4.05;1.63;;;14.60;73.50;;;;;;5049850;28;20030;-74
2021/05/04 10:13:47;;;;;;;4.82;1.90;;;14.70;73.60;;;;;;5049971;28;20113;-74
2021/05/04 10:16:13;;;;;;;5.75;2.17;;;14.90;72.80;;;;;;5050974;28;20029;-74
2021/05/04 10:18:39;;;;;;;2.95;1.60;;;15.00;72.40;;;;;;5050729;28;20416;-75
2021/05/04 10:21:06;;;;;;;3.88;1.63;;;15.30;74.40;;;;;;5050732;28;20029;-74
2021/05/04 10:23:34;;;;;;;4.80;1.42;;;15.40;71.80;;;;;;5050853;28;20028;-74
2021/05/04 10:26:14;;;;;;;4.15;1.70;;;15.30;72.20;;;;;;5048757;28;20056;-75
2021/05/04 10:28:43;;;;;;;4.53;1.70;;;15.30;72.00;;;;;;5048559;28;20388;-74
2021/05/04 10:31:14;;;;;;;3.33;1.70;;;15.20;71.40;;;;;;5049281;28;20033;-74
2021/05/04 10:33:40;;;;;;;4.95;1.77;;;15.30;72.10;;;;;;5049397;28;20108;-74
2021/05/04 10:36:33;;;;;;;4.15;2.20;;;15.30;72.00;;;;;;5050562;28;20021;-74
2021/05/04 10:39:00;;;;;;;3.67;1.50;;;15.50;73.00;;;;;;5050584;28;20391;-74
2021/05/04 10:41:26;;;;;;;3.40;1.35;;;15.80;71.80;;;;;;5050389;28;20017;-74
2021/05/04 10:44:05;;;;;;;6.22;1.48;;;16.00;70.70;;;;;;5050555;28;20028;-74
2021/05/04 10:46:42;;;;;;;4.47;1.42;;;16.10;69.80;;;;;;5049261;28;20036;-75
2021/05/04 10:49:09;;;;;;;6.43;1.30;;;16.30;69.00;;;;;;5049233;28;20040;-74
2021/05/04 10:51:52;;;;;;;2.97;1.20;;;16.10;69.00;;;;;;5050244;28;20507;-74
2021/05/04 10:54:20;;;;;;;5.57;1.20;;;16.20;69.00;;;;;;5050407;28;20090;-75
2021/05/04 10:56:48;;;;;;;3.75;1.30;;;16.20;68.70;;;;;;5049126;28;20112;-75
2021/05/04 10:59:37;;;;;;;2.95;1.40;;;16.30;68.80;;;;;;5050327;28;20039;-74
2021/05/04 11:02:20;;;;;;;4.38;1.65;;;16.30;67.70;;;;;;5040773;28;20112;-74
2021/05/04 11:04:49;;;;;;;3.42;1.08;;;16.20;68.30;;;;;;5049262;28;20108;-74
2021/05/04 11:07:58;;;;;;;4.10;1.10;;;16.20;67.50;;;;;;5049097;28;20048;-74
2021/05/04 11:10:26;;;;;;;3.08;1.60;;;16.20;67.20;;;;;;5049065;28;20514;-74
2021/05/04 11:12:52;;;;;;;4.18;1.33;;;16.10;68.50;;;;;;5050000;28;20032;-74
2021/05/04 11:15:30;;;;;;;6.18;1.50;;;16.20;69.00;;;;;;5050298;28;20056;-74
2021/05/04 11:17:55;;;;;;;3.70;1.10;;;16.80;67.50;;;;;;5050324;28;20024;-74
2021/05/04 11:20:33;;;;;;;2.78;1.08;;;16.90;66.30;;;;;;5048868;28;20017;-74
2021/05/04 11:22:59;;;;;;;4.03;1.40;;;17.10;66.30;;;;;;5045463;28;20021;-75
2021/05/04 11:25:51;;;;;;;6.97;1.35;;;17.30;69.20;;;;;;5040330;28;20424;-75
2021/05/04 11:28:16;;;;;;;5.15;1.10;;;17.20;65.60;;;;;;5047417;28;20476;-74
2021/05/04 11:30:42;;;;;;;2.38;1.00;;;17.10;66.70;;;;;;5049871;28;20056;-74
2021/05/04 11:33:31;;;;;;;4.40;1.40;;;17.00;66.20;;;;;;5049896;28;20434;-74
2021/05/04 11:35:58;;;;;;;5.05;1.55;;;17.10;65.40;;;;;;5036490;28;20043;-75
2021/05/04 11:38:25;;;;;;;7.55;1.10;;;16.70;66.00;;;;;;5051438;28;20031;-75
2021/05/04 11:40:51;;;;;;;4.38;1.00;;;16.30;66.90;;;;;;5050864;28;20391;-78
2021/05/04 11:43:20;;;;;;;6.10;1.30;;;16.40;66.80;;;;;;5046753;28;20087;-76
2021/05/04 11:45:47;;;;;;;4.45;1.45;;;16.20;67.60;;;;;;5052728;28;20020;-75
2021/05/04 11:48:12;;;;;;;3.35;1.30;;;16.30;67.40;;;;;;5051922;28;20029;-76
2021/05/04 11:50:48;;;;;;;2.95;1.13;;;16.20;66.70;;;;;;5047521;28;20120;-76
2021/05/04 11:53:16;;;;;;;3.95;1.00;;;16.40;66.30;;;;;;5031571;28;20067;-76
2021/05/04 11:55:47;;;;;;;3.05;1.27;;;16.60;67.50;;;;;;5032229;28;20082;-76
2021/05/04 11:58:24;;;;;;;3.20;1.10;;;16.70;67.00;;;;;;5034020;28;20084;-76
2021/05/04 12:01:01;;;;;;;3.42;1.20;;;16.80;66.20;;;;;;5053507;28;20029;-76
2021/05/04 12:03:27;;;;;;;4.05;1.20;;;16.60;66.60;;;;;;5045681;28;20022;-75
2021/05/04 12:05:56;;;;;;;4.53;1.52;;;16.40;66.50;;;;;;5033528;28;20071;-74
2021/05/04 12:08:23;;;;;;;1.10;0.77;;;16.20;66.80;;;;;;5033252;28;20029;-74
2021/05/04 12:10:49;;;;;;;2.13;1.00;;;16.30;68.40;;;;;;5033155;28;20030;-74
2021/05/04 12:13:15;;;;;;;5.72;1.20;;;16.50;67.10;;;;;;5032667;28;20032;-64
2021/05/04 12:15:42;;;;;;;3.50;0.80;;;15.60;68.30;;;;;;5032927;28;20034;-64
2021/05/04 12:18:21;;;;;;;4.05;1.00;;;15.10;70.30;;;;;;5031486;28;20396;-64
2021/05/04 12:20:55;;;;;;;2.60;1.00;;;15.00;71.00;;;;;;5031573;28;20044;-64
2021/05/04 12:23:28;;;;;;;5.57;1.00;;;15.10;71.60;;;;;;5032671;28;20103;-64
2021/05/04 12:25:59;;;;;;;1.75;0.82;;;15.40;72.00;;;;;;5032726;28;20523;-64
2021/05/04 12:28:31;;;;;;;1.50;0.80;;;15.30;71.10;;;;;;5032648;28;20022;-64
2021/05/04 12:31:19;;;;;;;1.83;0.70;;;15.30;71.80;;;;;;5032553;28;20057;-65
2021/05/04 12:33:48;;;;;;;4.22;1.27;;;15.60;72.90;;;;;;5032124;28;20024;-65
2021/05/04 12:36:31;;;;;;;3.53;0.90;;;15.30;74.00;;;;;;5031413;28;20037;-64
2021/05/04 12:38:58;;;;;;;4.78;0.90;;;15.40;73.00;;;;;;5032718;28;20112;-65
2021/05/04 12:41:36;;;;;;;3.78;1.10;;;15.00;73.40;;;;;;5032274;28;20018;-64
2021/05/04 12:44:10;;;;;;;3.97;1.13;;;15.10;73.50;;;;;;5032592;28;20026;-65
2021/05/04 12:46:46;;;;;;;3.55;1.00;;;14.90;74.50;;;;;;5032483;28;20414;-65
2021/05/04 12:49:12;;;;;;;3.40;1.15;;;14.90;74.80;;;;;;5032342;28;20030;-64
2021/05/04 12:51:44;;;;;;;3.38;0.93;;;14.60;76.20;;;;;;5032094;28;20036;-63
2021/05/04 12:54:17;;;;;;;2.88;0.85;;;14.80;76.30;;;;;;5032380;28;20028;-65
2021/05/04 12:57:07;;;;;;;6.32;0.98;;;15.20;76.50;;;;;;5032257;28;20108;-64
2021/05/04 12:59:33;;;;;;;4.90;0.90;;;15.00;75.80;;;;;;5031798;28;20037;-63
2021/05/04 13:02:05;;;;;;;5.10;1.00;;;14.80;76.50;;;;;;5031976;28;20079;-64
2021/05/04 13:10:12;;;;;;;3.80;1.00;;;14.60;76.50;;;;;;5032011;28;20099;-64
2021/05/04 13:29:30;;;;;;;1.90;0.80;;;15.20;75.60;;;;;;5031767;28;20400;-64
2021/05/04 13:34:49;;;;;;;2.95;0.93;;;15.30;76.40;;;;;;5032368;28;20029;-64
2021/05/04 13:37:21;;;;;;;3.03;1.20;;;15.90;76.80;;;;;;5031939;28;20028;-64
2021/05/04 13:47:56;;;;;;;2.22;0.80;;;16.70;70.30;;;;;;5031579;28;20033;-64
2021/05/04 13:50:23;;;;;;;6.10;1.00;;;17.30;68.70;;;;;;5031288;28;20036;-64
2021/05/04 13:52:49;;;;;;;6.47;0.90;;;17.00;69.80;;;;;;5031040;28;20753;-63
2021/05/04 13:55:16;;;;;;;3.58;0.95;;;17.50;70.90;;;;;;5031099;28;20100;-64
2021/05/04 13:57:46;;;;;;;4.55;0.95;;;17.30;71.10;;;;;;5030945;28;20435;-65
2021/05/04 14:00:17;;;;;;;2.45;0.70;;;18.00;69.90;;;;;;5030677;28;20036;-64
2021/05/04 14:05:49;;;;;;;2.20;0.70;;;17.40;70.60;;;;;;5020780;28;19932;-64
2021/05/04 14:25:06;;;;;;;2.65;1.08;;;16.80;72.60;;;;;;5030690;28;20041;-63
2021/05/04 14:27:27;;;;;;;2.00;0.85;;;17.20;71.20;;;;;;5030878;28;20181;-63
2021/05/04 14:29:53;;;;;;;2.55;1.00;;;17.10;70.00;;;;;;5030571;28;20057;-63
2021/05/04 14:32:18;;;;;;;4.20;0.98;;;17.00;70.40;;;;;;5030487;28;20076;-63
2021/05/04 14:34:45;;;;;;;3.47;0.90;;;16.40;71.10;;;;;;5030693;28;20063;-62
2021/05/04 14:37:26;;;;;;;3.03;1.05;;;16.70;70.70;;;;;;5030568;28;20030;-62
2021/05/04 15:00:56;;;;;;;3.60;0.98;;;16.50;68.40;;;;;;5030514;28;20027;-63
2021/05/04 15:03:21;;;;;;;3.03;1.60;;;15.80;71.60;;;;;;5030255;28;20075;-62
2021/05/04 15:05:47;;;;;;;2.92;1.10;;;15.40;71.30;;;;;;5030511;28;20030;-62
2021/05/04 15:08:14;;;;;;;1.95;0.85;;;15.00;72.80;;;;;;5030257;28;20040;-62
2021/05/04 15:10:40;;;;;;;4.60;1.00;;;14.60;75.60;;;;;;5030510;28;20053;-58
2021/05/04 15:13:08;;;;;;;13.68;1.40;;;15.10;80.90;;;;;;5033773;28;20025;-63
2021/05/04 15:18:06;;;;;;;7.40;1.58;;;19.00;89.80;;;;;;5054267;28;20563;-64
2021/05/04 15:23:06;;;;;;;13.98;1.30;;;20.60;83.60;;;;;;5054121;28;20029;-64
2021/05/04 15:25:32;;;;;;;3.97;1.30;;;21.10;81.40;;;;;;5053339;28;20032;-64
2021/05/04 15:27:57;;;;;;;6.07;1.10;;;21.80;79.50;;;;;;5052634;28;20078;-64
2021/05/04 15:30:24;;;;;;;10.13;1.45;;;22.40;78.00;;;;;;5052476;28;20048;-64
2021/05/04 15:33:00;;;;;;;8.75;1.30;;;22.50;77.60;;;;;;5053592;28;20056;-64
2021/05/04 15:35:32;;;;;;;12.60;1.10;;;22.70;76.50;;;;;;5053757;28;20364;-64
2021/05/04 15:37:58;;;;;;;7.32;1.05;;;22.60;76.80;;;;;;5053644;28;20080;-63
2021/05/04 15:40:27;;;;;;;7.60;1.30;;;22.40;77.00;;;;;;5053646;28;20025;-64
2021/05/04 15:42:52;;;;;;;12.20;1.40;;;22.30;77.50;;;;;;5053364;28;20029;-65
2021/05/04 15:45:18;;;;;;;9.80;1.08;;;22.00;76.10;;;;;;5053585;28;20029;-64
2021/05/04 15:48:10;;;;;;;6.20;1.40;;;21.70;76.90;;;;;;5053485;28;20017;-65
2021/05/04 15:53:45;;;;;;;5.60;1.33;;;21.20;77.30;;;;;;5053286;28;20017;-65
2021/05/04 16:00:20;;;;;;;4.93;0.93;;;21.10;77.20;;;;;;5053104;28;20210;-65
2021/05/04 16:02:06;;;;;;;6.82;1.00;;;21.10;75.50;;;;;;5015472;28;20483;-64
2021/05/04 16:07:18;;;;;;;3.75;1.00;;;21.10;74.30;;;;;;5053185;28;20037;-64
2021/05/04 16:09:46;;;;;;;3.55;1.10;;;21.10;72.90;;;;;;5053066;28;20028;-64
2021/05/04 16:12:11;;;;;;;7.43;1.35;;;21.10;73.00;;;;;;5052919;28;20664;-65
2021/05/04 16:14:37;;;;;;;3.47;0.80;;;21.20;71.70;;;;;;5053006;28;20176;-64
2021/05/04 16:17:03;;;;;;;7.47;1.30;;;21.20;71.20;;;;;;5052835;28;20086;-65
2021/05/04 16:19:32;;;;;;;4.65;1.13;;;21.10;70.90;;;;;;5050349;28;20028;-65
2021/05/04 16:22:00;;;;;;;5.38;1.00;;;21.00;71.00;;;;;;5052014;28;20036;-64
2021/05/04 16:24:30;;;;;;;6.40;1.08;;;20.90;70.70;;;;;;5050550;28;20119;-64
2021/05/04 16:31:50;;;;;;;12.18;1.67;;;20.70;70.40;;;;;;5049234;28;20407;-63
2021/05/04 16:34:16;;;;;;;9.35;1.30;;;20.70;72.30;;;;;;5049915;28;20032;-63
2021/05/04 16:36:41;;;;;;;8.32;1.50;;;20.70;74.50;;;;;;5051186;28;20251;-62
2021/05/04 16:39:08;;;;;;;10.00;1.38;;;20.60;73.80;;;;;;5040530;28;20578;-62
2021/05/04 16:41:35;;;;;;;11.30;1.52;;;20.70;73.90;;;;;;5052625;28;20017;-63
2021/05/04 16:44:00;;;;;;;6.00;1.20;;;20.70;73.60;;;;;;5050417;28;20419;-63
2021/05/04 16:46:26;;;;;;;8.23;1.88;;;20.80;74.40;;;;;;5050111;28;20039;-64
2021/05/04 16:48:52;;;;;;;7.75;1.70;;;20.80;74.30;;;;;;5052540;28;20092;-64
2021/05/04 16:51:19;;;;;;;4.80;1.10;;;20.80;73.80;;;;;;5052155;28;20024;-63
2021/05/04 16:53:45;;;;;;;4.43;1.20;;;20.70;73.80;;;;;;5052325;28;20391;-64
2021/05/04 16:56:11;;;;;;;4.28;1.08;;;20.70;73.60;;;;;;5052237;28;20029;-64